^^
No Wait Weather (KNEBELLE1) Station Historical Data
Daily Summary for May 24, 2019 Units:  English    Metric   Both
Daily Weekly Monthly Yearly Custom
  High: Low: Average:
Temperature: 78.6 °F 55.4 °F 67 °F
Dew Point: 65.12 °F 52.49 °F 59.2 °F
Humidity: 100% 42% 79%
Wind Speed: 6mph 0mph 0.4mph
Wind Gust: 11mph - -
Wind- - SSW
Pressure: 29.87 in 29.61 in -
Precipitation: 0.39 in    
Historical Graphs
 
 
Tabular Data for May 24, 2019
Time Temperature Dew Point Pressure Wind Wind Speed Wind Gust Humidity Rainfall Rate (Hourly) solar
00:04 55.9 °F 54.49 °F 29.86 in Calm   4 mph 95% 0.62 in WeatherCatV3.04B91 W/m2
00:09 55.9 °F 54.49 °F 29.86 in Calm     95% 0.25 in WeatherCatV3.04B91 W/m2
00:14 55.9 °F 54.49 °F 29.86 in Calm   2 mph 95% 0.65 in WeatherCatV3.04B91 W/m2
00:19 55.7 °F 54.29 °F 29.86 in Calm     95% 0.36 in WeatherCatV3.04B91 W/m2
00:24 55.7 °F 54.29 °F 29.86 in NE 1 mph 1 mph 95% 0.21 in WeatherCatV3.04B91 W/m2
00:29 55.7 °F 54.29 °F 29.87 in Calm     95% 0.45 in WeatherCatV3.04B91 W/m2
00:34 55.7 °F 54.58 °F 29.87 in NE 1 mph 1 mph 96% 0.26 in WeatherCatV3.04B91 W/m2
00:39 55.7 °F 54.58 °F 29.87 in NE 1 mph 4 mph 96% 0.18 in WeatherCatV3.04B91 W/m2
00:44 55.6 °F 54.48 °F 29.84 in Calm     96% 0.12 in WeatherCatV3.04B91 W/m2
00:49 55.6 °F 54.48 °F 29.84 in Calm     96% 0.08 in WeatherCatV3.04B91 W/m2
00:54 55.6 °F 54.48 °F 29.84 in Calm     96% 0.08 in WeatherCatV3.04B91 W/m2
00:59 55.6 °F 54.48 °F 29.84 in Calm     96% 0.1 in WeatherCatV3.04B91 W/m2
01:04 55.6 °F 54.48 °F 29.84 in NE 3 mph 11 mph 96% 0.07 in WeatherCatV3.04B91 W/m2
01:09 55.4 °F 54.56 °F 29.84 in Calm   6 mph 97% 0.05 in WeatherCatV3.04B91 W/m2
01:14 55.4 °F 54.56 °F 29.80 in Calm   5 mph 97% 0.04 in WeatherCatV3.04B91 W/m2
01:19 55.4 °F 54.56 °F 29.80 in Calm   2 mph 97% 0.04 in WeatherCatV3.04B91 W/m2
01:24 55.4 °F 54.56 °F 29.80 in Calm   4 mph 97% 0.04 in WeatherCatV3.04B91 W/m2
01:29 55.6 °F 54.76 °F 29.79 in Calm   1 mph 97% 0 in WeatherCatV3.04B91 W/m2
01:34 55.6 °F 54.76 °F 29.79 in Calm   2 mph 97% 0 in WeatherCatV3.04B91 W/m2
01:39 55.6 °F 54.76 °F 29.79 in Calm   3 mph 97% 0 in WeatherCatV3.04B91 W/m2
01:44 55.7 °F 54.86 °F 29.79 in Calm     97% 0 in WeatherCatV3.04B91 W/m2
01:49 55.7 °F 54.86 °F 29.79 in Calm     97% 0 in WeatherCatV3.04B91 W/m2
01:54 55.9 °F 55.06 °F 29.79 in Calm   7 mph 97% 0 in WeatherCatV3.04B91 W/m2
01:59 55.9 °F 55.06 °F 29.77 in ENE 2 mph 2 mph 97% 0 in WeatherCatV3.04B91 W/m2
02:04 55.9 °F 55.34 °F 29.77 in Calm   6 mph 98% 0 in WeatherCatV3.04B91 W/m2
02:09 56 °F 55.44 °F 29.77 in Calm   2 mph 98% 0 in WeatherCatV3.04B91 W/m2
02:14 56 °F 55.44 °F 29.77 in Calm   6 mph 98% 0 in WeatherCatV3.04B91 W/m2
02:19 56.2 °F 55.64 °F 29.77 in Calm     98% 0 in WeatherCatV3.04B91 W/m2
02:24 56.3 °F 55.74 °F 29.77 in Calm     98% 0 in WeatherCatV3.04B91 W/m2
02:29 56.3 °F 55.74 °F 29.75 in Calm     98% 0 in WeatherCatV3.04B91 W/m2
02:34 56.5 °F 55.94 °F 29.75 in Calm     98% 0 in WeatherCatV3.04B91 W/m2
02:39 56.5 °F 55.94 °F 29.75 in Calm     98% 0 in WeatherCatV3.04B91 W/m2
02:44 56.6 °F 56.04 °F 29.74 in Calm     98% 0 in WeatherCatV3.04B91 W/m2
02:49 56.7 °F 56.14 °F 29.74 in Calm     98% 0 in WeatherCatV3.04B91 W/m2
02:54 56.9 °F 56.34 °F 29.74 in Calm     98% 0 in WeatherCatV3.04B91 W/m2
02:59 56.9 °F 56.34 °F 29.74 in Calm     98% 0 in WeatherCatV3.04B91 W/m2
03:04 57 °F 56.44 °F 29.74 in Calm     98% 0 in WeatherCatV3.04B91 W/m2
03:09 57.2 °F 56.64 °F 29.74 in Calm     98% 0 in WeatherCatV3.04B91 W/m2
03:14 57.3 °F 56.74 °F 29.73 in Calm     98% 0 in WeatherCatV3.04B91 W/m2
03:19 57.3 °F 56.74 °F 29.73 in Calm     98% 0 in WeatherCatV3.04B91 W/m2
03:24 57.3 °F 56.74 °F 29.73 in Calm     98% 0 in WeatherCatV3.04B91 W/m2
03:29 57.5 °F 56.94 °F 29.73 in Calm     98% 0 in WeatherCatV3.04B91 W/m2
03:34 57.5 °F 56.94 °F 29.73 in Calm     98% 0 in WeatherCatV3.04B91 W/m2
03:39 57.6 °F 57.04 °F 29.73 in Calm     98% 0 in WeatherCatV3.04B91 W/m2
03:44 57.8 °F 57.24 °F 29.71 in Calm     98% 0 in WeatherCatV3.04B91 W/m2
03:49 58 °F 57.72 °F 29.71 in Calm     99% 0 in WeatherCatV3.04B91 W/m2
03:54 58.1 °F 57.82 °F 29.71 in Calm     99% 0 in WeatherCatV3.04B91 W/m2
03:59 58.3 °F 58.02 °F 29.69 in Calm     99% 0 in WeatherCatV3.04B91 W/m2
04:04 58.4 °F 58.12 °F 29.69 in Calm     99% 0 in WeatherCatV3.04B91 W/m2
04:09 58.4 °F 58.12 °F 29.69 in Calm     99% 0 in WeatherCatV3.04B91 W/m2
04:14 58.4 °F 58.12 °F 29.72 in Calm     99% 0 in WeatherCatV3.04B91 W/m2
04:19 58.6 °F 58.32 °F 29.72 in Calm     99% 0 in WeatherCatV3.04B91 W/m2
04:24 58.6 °F 58.32 °F 29.72 in Calm     99% 0 in WeatherCatV3.04B91 W/m2
04:29 58.6 °F 58.32 °F 29.71 in Calm     99% 0 in WeatherCatV3.04B91 W/m2
04:34 58.6 °F 58.32 °F 29.71 in Calm     99% 0 in WeatherCatV3.04B91 W/m2
04:39 58.6 °F 58.32 °F 29.71 in Calm     99% 0 in WeatherCatV3.04B91 W/m2
04:44 58.6 °F 58.32 °F 29.73 in Calm     99% 0 in WeatherCatV3.04B91 W/m2
04:49 58.6 °F 58.32 °F 29.73 in Calm     99% 0 in WeatherCatV3.04B91 W/m2
04:54 58.4 °F 58.12 °F 29.73 in Calm   2 mph 99% 0 in WeatherCatV3.04B91 W/m2
04:59 58.4 °F 58.12 °F 29.76 in Calm   4 mph 99% 0 in WeatherCatV3.04B91 W/m2
05:04 58.3 °F 58.02 °F 29.76 in Calm   1 mph 99% 0.08 in WeatherCatV3.04B91 W/m2
05:09 58.3 °F 58.02 °F 29.76 in Calm     99% 0.14 in WeatherCatV3.04B91 W/m2
05:14 58.1 °F 57.82 °F 29.74 in Calm     99% 0.12 in WeatherCatV3.04B91 W/m2
05:19 58.1 °F 57.82 °F 29.74 in Calm   7 mph 99% 0.11 in WeatherCatV3.04B91 W/m2
05:24 58.1 °F 57.82 °F 29.74 in Calm     99% 0.09 in WeatherCatV3.04B91 W/m2
05:29 58.1 °F 57.82 °F 29.70 in Calm   2 mph 99% 0.16 in WeatherCatV3.04B91 W/m2
05:34 58.1 °F 57.82 °F 29.70 in Calm     99% 0.13 in WeatherCatV3.04B91 W/m2
05:39 58.3 °F 58.02 °F 29.70 in Calm     99% 0.14 in WeatherCatV3.04B91 W/m2
05:44 58.7 °F 58.42 °F 29.68 in Calm   6 mph 99% 0.07 in WeatherCatV3.04B91 W/m2
05:49 59 °F 58.72 °F 29.68 in Calm     99% 0.04 in WeatherCatV3.04B91 W/m2
05:54 59.3 °F 59.02 °F 29.68 in Calm     99% 0 in WeatherCatV3.04B91 W/m2
05:59 59.6 °F 59.32 °F 29.66 in Calm     99% 0 in WeatherCatV3.04B91 W/m2
06:04 59.8 °F 59.52 °F 29.66 in Calm     99% 0 in WeatherCatV3.04B91 W/m2
06:09 60.1 °F 59.82 °F 29.66 in Calm     99% 0 in WeatherCatV3.04B91 W/m2
06:14 60.1 °F 59.82 °F 29.66 in Calm     99% 0 in WeatherCatV3.04B91 W/m2
06:19 60.1 °F 59.82 °F 29.66 in Calm     99% 0 in WeatherCatV3.04B91 W/m2
06:24 59.9 °F 59.62 °F 29.66 in Calm     99% 0 in WeatherCatV3.04B91 W/m2
06:29 59.9 °F 59.62 °F 29.66 in Calm     99% 0 in WeatherCatV3.04B91 W/m2
06:34 59.8 °F 59.52 °F 29.66 in Calm     99% 0 in WeatherCatV3.04B91 W/m2
06:39 59.8 °F 59.52 °F 29.66 in Calm     99% 0 in WeatherCatV3.04B91 W/m2
06:44 59.8 °F 59.52 °F 29.66 in Calm     99% 0 in WeatherCatV3.04B91 W/m2
06:49 59.8 °F 59.52 °F 29.66 in Calm     99% 0 in WeatherCatV3.04B91 W/m2
06:54 59.9 °F 59.62 °F 29.66 in Calm     99% 0 in WeatherCatV3.04B91 W/m2
06:59 59.9 °F 59.62 °F 29.65 in Calm     99% 0 in WeatherCatV3.04B91 W/m2
07:04 59.9 °F 59.62 °F 29.65 in Calm     99% 0 in WeatherCatV3.04B91 W/m2
07:09 60.1 °F 59.82 °F 29.65 in Calm     99% 0 in WeatherCatV3.04B91 W/m2
07:14 60.1 °F 59.82 °F 29.68 in Calm     99% 0 in WeatherCatV3.04B91 W/m2
07:19 60.4 °F 60.12 °F 29.68 in Calm     99% 0 in WeatherCatV3.04B91 W/m2
07:24 60.5 °F 60.22 °F 29.68 in Calm     99% 0 in WeatherCatV3.04B91 W/m2
07:29 60.7 °F 60.42 °F 29.69 in Calm     99% 0 in WeatherCatV3.04B91 W/m2
07:34 60.9 °F 60.9 °F 29.69 in Calm     100% 0 in WeatherCatV3.04B91 W/m2
07:39 61 °F 61 °F 29.69 in Calm     100% 0 in WeatherCatV3.04B91 W/m2
07:44 61.3 °F 61.3 °F 29.70 in Calm   2 mph 100% 0 in WeatherCatV3.04B91 W/m2
07:49 61.6 °F 61.6 °F 29.70 in Calm     100% 0 in WeatherCatV3.04B91 W/m2
07:54 61.8 °F 61.8 °F 29.70 in Calm     100% 0 in WeatherCatV3.04B91 W/m2
07:59 61.8 °F 61.8 °F 29.71 in Calm   2 mph 100% 0 in WeatherCatV3.04B91 W/m2
08:04 61.8 °F 61.8 °F 29.71 in Calm     100% 0 in WeatherCatV3.04B91 W/m2
08:09 61.8 °F 61.8 °F 29.71 in Calm   2 mph 100% 0 in WeatherCatV3.04B91 W/m2
08:14 62 °F 62 °F 29.71 in Calm   3 mph 100% 0 in WeatherCatV3.04B91 W/m2
08:19 62 °F 62 °F 29.71 in Calm   5 mph 100% 0 in WeatherCatV3.04B91 W/m2
08:24 62.3 °F 62.3 °F 29.71 in SSW 3 mph 8 mph 100% 0 in WeatherCatV3.04B91 W/m2
08:29 62.4 °F 62.4 °F 29.70 in Calm   8 mph 100% 0 in WeatherCatV3.04B91 W/m2
08:34 62.6 °F 62.31 °F 29.70 in SW 6 mph 6 mph 99% 0 in WeatherCatV3.04B91 W/m2
08:39 62.6 °F 62.31 °F 29.70 in Calm   7 mph 99% 0 in WeatherCatV3.04B91 W/m2
08:44 62.6 °F 62.31 °F 29.70 in SSW 2 mph 3 mph 99% 0 in WeatherCatV3.04B91 W/m2
08:49 62.6 °F 62.31 °F 29.70 in Calm   6 mph 99% 0 in WeatherCatV3.04B91 W/m2
08:54 62.6 °F 62.31 °F 29.70 in Calm   4 mph 99% 0 in WeatherCatV3.04B91 W/m2
08:59 62.7 °F 62.41 °F 29.70 in SSW 2 mph 3 mph 99% 0 in WeatherCatV3.04B91 W/m2
09:04 62.7 °F 62.41 °F 29.70 in Calm   4 mph 99% 0 in WeatherCatV3.04B91 W/m2
09:09 62.9 °F 62.61 °F 29.70 in Calm   4 mph 99% 0 in WeatherCatV3.04B91 W/m2
09:14 62.9 °F 62.61 °F 29.71 in Calm   7 mph 99% 0 in WeatherCatV3.04B91 W/m2
09:19 63.1 °F 62.81 °F 29.71 in Calm   3 mph 99% 0 in WeatherCatV3.04B91 W/m2
09:24 63.2 °F 62.91 °F 29.71 in SW 2 mph 8 mph 99% 0 in WeatherCatV3.04B91 W/m2
09:29 63.7 °F 63.41 °F 29.69 in Calm   4 mph 99% 0 in WeatherCatV3.04B91 W/m2
09:34 64 °F 63.71 °F 29.69 in SSW 2 mph 7 mph 99% 0 in WeatherCatV3.04B91 W/m2
09:39 64.3 °F 64.01 °F 29.69 in Calm   10 mph 99% 0 in WeatherCatV3.04B91 W/m2
09:44 64.5 °F 64.21 °F 29.69 in Calm   4 mph 99% 0 in WeatherCatV3.04B91 W/m2
09:49 64.8 °F 64.51 °F 29.69 in Calm   4 mph 99% 0 in WeatherCatV3.04B91 W/m2
09:54 65 °F 64.42 °F 29.69 in Calm   7 mph 98% 0 in WeatherCatV3.04B91 W/m2
09:59 65.2 °F 64.62 °F 29.68 in Calm   3 mph 98% 0 in WeatherCatV3.04B91 W/m2
10:04 65.2 °F 64.62 °F 29.68 in Calm   10 mph 98% 0 in WeatherCatV3.04B91 W/m2
10:09 65.3 °F 64.72 °F 29.68 in Calm   5 mph 98% 0 in WeatherCatV3.04B91 W/m2
10:14 65.5 °F 64.62 °F 29.67 in Calm   5 mph 97% 0 in WeatherCatV3.04B91 W/m2
10:19 65.8 °F 64.92 °F 29.67 in Calm   4 mph 97% 0 in WeatherCatV3.04B91 W/m2
10:24 66 °F 65.12 °F 29.67 in Calm     97% 0 in WeatherCatV3.04B91 W/m2
10:29 66 °F 64.82 °F 29.68 in Calm   4 mph 96% 0 in WeatherCatV3.04B91 W/m2
10:34 66.1 °F 64.92 °F 29.68 in Calm   2 mph 96% 0 in WeatherCatV3.04B91 W/m2
10:39 66.1 °F 64.92 °F 29.68 in Calm     96% 0 in WeatherCatV3.04B91 W/m2
10:44 66.3 °F 64.82 °F 29.70 in WSW 6 mph 6 mph 95% 0 in WeatherCatV3.04B91 W/m2
10:49 66 °F 64.52 °F 29.70 in Calm   4 mph 95% 0 in WeatherCatV3.04B91 W/m2
10:54 65.8 °F 64.02 °F 29.70 in Calm   7 mph 94% 0 in WeatherCatV3.04B91 W/m2
10:59 65.8 °F 64.02 °F 29.70 in Calm   3 mph 94% 0 in WeatherCatV3.04B91 W/m2
11:04 66 °F 64.22 °F 29.70 in Calm     94% 0 in WeatherCatV3.04B91 W/m2
11:09 66.1 °F 64.32 °F 29.70 in Calm   4 mph 94% 0 in WeatherCatV3.04B91 W/m2
11:14 66.3 °F 64.21 °F 29.70 in SSW 6 mph 6 mph 93% 0 in WeatherCatV3.04B91 W/m2
11:19 66.4 °F 64.31 °F 29.70 in SSW 3 mph 9 mph 93% 0 in WeatherCatV3.04B91 W/m2
11:24 66.4 °F 64 °F 29.70 in SW 1 mph 5 mph 92% 0 in WeatherCatV3.04B91 W/m2
11:29 66.6 °F 63.88 °F 29.70 in Calm     91% 0 in WeatherCatV3.04B91 W/m2
11:34 66.9 °F 64.18 °F 29.70 in Calm   3 mph 91% 0 in WeatherCatV3.04B91 W/m2
11:39 67.3 °F 64.26 °F 29.70 in Calm     90% 0 in WeatherCatV3.04B91 W/m2
11:44 67.3 °F 63.94 °F 29.71 in Calm   1 mph 89% 0 in WeatherCatV3.04B91 W/m2
11:49 67.4 °F 64.04 °F 29.71 in Calm     89% 0 in WeatherCatV3.04B91 W/m2
11:54 67.8 °F 63.78 °F 29.71 in Calm     87% 0 in WeatherCatV3.04B91 W/m2
11:59 67.9 °F 63.55 °F 29.71 in Calm     86% 0 in WeatherCatV3.04B91 W/m2
12:04 68.3 °F 63.94 °F 29.71 in Calm   4 mph 86% 0 in WeatherCatV3.04B91 W/m2
12:09 68.4 °F 63.37 °F 29.71 in SSW 2 mph 11 mph 84% 0 in WeatherCatV3.04B91 W/m2
12:14 68.8 °F 63.42 °F 29.71 in Calm     83% 0 in WeatherCatV3.04B91 W/m2
12:19 69.4 °F 63.66 °F 29.71 in Calm   6 mph 82% 0 in WeatherCatV3.04B91 W/m2
12:24 70.1 °F 63.63 °F 29.71 in Calm   4 mph 80% 0 in WeatherCatV3.04B91 W/m2
12:29 70.3 °F 63.1 °F 29.71 in SW 2 mph 6 mph 78% 0 in WeatherCatV3.04B91 W/m2
12:34 70.4 °F 62.83 °F 29.71 in Calm   9 mph 77% 0 in WeatherCatV3.04B91 W/m2
12:39 70.8 °F 63.22 °F 29.71 in SW 1 mph 3 mph 77% 0 in WeatherCatV3.04B91 W/m2
12:44 71.1 °F 63.14 °F 29.71 in Calm   1 mph 76% 0 in WeatherCatV3.04B91 W/m2
12:49 71.3 °F 63.33 °F 29.71 in Calm   2 mph 76% 0 in WeatherCatV3.04B91 W/m2
12:54 71.6 °F 63.62 °F 29.71 in Calm   4 mph 76% 0 in WeatherCatV3.04B91 W/m2
12:59 72.1 °F 64.1 °F 29.70 in SSW 1 mph 1 mph 76% 0 in WeatherCatV3.04B91 W/m2
13:04 72.7 °F 63.92 °F 29.70 in Calm     74% 0 in WeatherCatV3.04B91 W/m2
13:09 73.2 °F 63.62 °F 29.70 in Calm   1 mph 72% 0 in WeatherCatV3.04B91 W/m2
13:14 73.7 °F 64.1 °F 29.70 in Calm     72% 0 in WeatherCatV3.04B91 W/m2
13:19 73.9 °F 63.89 °F 29.70 in Calm   6 mph 71% 0 in WeatherCatV3.04B91 W/m2
13:24 74 °F 63.58 °F 29.70 in Calm   5 mph 70% 0 in WeatherCatV3.04B91 W/m2
13:29 74.2 °F 63.77 °F 29.70 in Calm     70% 0 in WeatherCatV3.04B91 W/m2
13:34 74.6 °F 63.32 °F 29.70 in South 5 mph 6 mph 68% 0 in WeatherCatV3.04B91 W/m2
13:39 74.4 °F 63.55 °F 29.70 in Calm     69% 0 in WeatherCatV3.04B91 W/m2
13:44 74.2 °F 62.94 °F 29.70 in Calm   1 mph 68% 0 in WeatherCatV3.04B91 W/m2
13:49 74.4 °F 63.96 °F 29.70 in Calm     70% 0 in WeatherCatV3.04B91 W/m2
13:54 74.7 °F 63.84 °F 29.70 in Calm   3 mph 69% 0 in WeatherCatV3.04B91 W/m2
13:59 74.9 °F 64.03 °F 29.70 in Calm     69% 0 in WeatherCatV3.04B91 W/m2
14:04 75.4 °F 64.5 °F 29.70 in Calm     69% 0 in WeatherCatV3.04B91 W/m2
14:09 75.3 °F 63.57 °F 29.70 in Calm     67% 0 in WeatherCatV3.04B91 W/m2
14:14 75.6 °F 63.42 °F 29.69 in Calm     66% 0 in WeatherCatV3.04B91 W/m2
14:19 75.8 °F 63.18 °F 29.69 in Calm   2 mph 65% 0 in WeatherCatV3.04B91 W/m2
14:24 75.8 °F 63.18 °F 29.69 in Calm   4 mph 65% 0 in WeatherCatV3.04B91 W/m2
14:29 75.6 °F 62.99 °F 29.70 in SSW 3 mph 5 mph 65% 0 in WeatherCatV3.04B91 W/m2
14:34 75.8 °F 62.73 °F 29.70 in Calm   2 mph 64% 0 in WeatherCatV3.04B91 W/m2
14:39 76.1 °F 63.02 °F 29.70 in Calm     64% 0 in WeatherCatV3.04B91 W/m2
14:44 76.1 °F 62.11 °F 29.70 in SW 1 mph 8 mph 62% 0 in WeatherCatV3.04B91 W/m2
14:49 76 °F 62.02 °F 29.70 in SW 1 mph 3 mph 62% 0 in WeatherCatV3.04B91 W/m2
14:54 76 °F 62.48 °F 29.70 in Calm   1 mph 63% 0 in WeatherCatV3.04B91 W/m2
14:59 76.3 °F 61.84 °F 29.69 in SW 2 mph 6 mph 61% 0 in WeatherCatV3.04B91 W/m2
15:04 76.5 °F 62.03 °F 29.69 in SSW 1 mph 5 mph 61% 0 in WeatherCatV3.04B91 W/m2
15:09 76.5 °F 61.09 °F 29.69 in Calm   2 mph 59% 0 in WeatherCatV3.04B91 W/m2
15:14 76.5 °F 60.11 °F 29.69 in SW 2 mph 6 mph 57% 0 in WeatherCatV3.04B91 W/m2
15:19 76.5 °F 59.62 °F 29.69 in Calm   4 mph 56% 0 in WeatherCatV3.04B91 W/m2
15:24 76.7 °F 59.8 °F 29.69 in Calm   6 mph 56% 0 in WeatherCatV3.04B91 W/m2
15:29 76.7 °F 59.8 °F 29.68 in Calm   4 mph 56% 0 in WeatherCatV3.04B91 W/m2
15:34 76.8 °F 58.87 °F 29.68 in Calm   9 mph 54% 0 in WeatherCatV3.04B91 W/m2
15:39 77.2 °F 58.72 °F 29.68 in SW 2 mph 4 mph 53% 0 in WeatherCatV3.04B91 W/m2
15:44 77.6 °F 58.56 °F 29.68 in Calm   4 mph 52% 0 in WeatherCatV3.04B91 W/m2
15:49 77.7 °F 58.65 °F 29.68 in SSW 3 mph 4 mph 52% 0 in WeatherCatV3.04B91 W/m2
15:54 77.9 °F 58.29 °F 29.68 in SSW 1 mph 6 mph 51% 0 in WeatherCatV3.04B91 W/m2
15:59 77.7 °F 57.56 °F 29.68 in South 3 mph 6 mph 50% 0 in WeatherCatV3.04B91 W/m2
16:04 77.7 °F 56.42 °F 29.68 in Calm   9 mph 48% 0 in WeatherCatV3.04B91 W/m2
16:09 77.7 °F 55.84 °F 29.68 in SW 1 mph 6 mph 47% 0 in WeatherCatV3.04B91 W/m2
16:14 77.7 °F 58.11 °F 29.68 in WSW 3 mph 6 mph 51% 0 in WeatherCatV3.04B91 W/m2
16:19 77.9 °F 58.29 °F 29.68 in Calm   4 mph 51% 0 in WeatherCatV3.04B91 W/m2
16:24 78.3 °F 58.11 °F 29.68 in Calm     50% 0 in WeatherCatV3.04B91 W/m2
16:29 78.6 °F 57.82 °F 29.66 in Calm   1 mph 49% 0 in WeatherCatV3.04B91 W/m2
16:34 78.5 °F 58.29 °F 29.66 in Calm   4 mph 50% 0 in WeatherCatV3.04B91 W/m2
16:39 78.1 °F 56.79 °F 29.66 in SSW 4 mph 9 mph 48% 0 in WeatherCatV3.04B91 W/m2
16:44 77.6 °F 56.9 °F 29.66 in Calm   4 mph 49% 0 in WeatherCatV3.04B91 W/m2
16:49 77.6 °F 56.9 °F 29.66 in SW 1 mph 6 mph 49% 0 in WeatherCatV3.04B91 W/m2
16:54 77.4 °F 56.72 °F 29.66 in Calm   4 mph 49% 0 in WeatherCatV3.04B91 W/m2
16:59 77.4 °F 57.28 °F 29.65 in SSW 6 mph 6 mph 50% 0 in WeatherCatV3.04B91 W/m2
17:04 77.4 °F 56.72 °F 29.65 in SW 1 mph 5 mph 49% 0 in WeatherCatV3.04B91 W/m2
17:09 77.4 °F 56.72 °F 29.65 in Calm   5 mph 49% 0 in WeatherCatV3.04B91 W/m2
17:14 77.6 °F 55.75 °F 29.65 in Calm   1 mph 47% 0 in WeatherCatV3.04B91 W/m2
17:19 77.6 °F 55.75 °F 29.65 in SW 1 mph 6 mph 47% 0 in WeatherCatV3.04B91 W/m2
17:24 77.6 °F 55.75 °F 29.65 in Calm   4 mph 47% 0 in WeatherCatV3.04B91 W/m2
17:29 77.6 °F 54.55 °F 29.64 in SW 2 mph 4 mph 45% 0 in WeatherCatV3.04B91 W/m2
17:34 77.4 °F 53.76 °F 29.64 in Calm   7 mph 44% 0 in WeatherCatV3.04B91 W/m2
17:39 77.6 °F 52.67 °F 29.64 in SW 1 mph 4 mph 42% 0 in WeatherCatV3.04B91 W/m2
17:44 77.6 °F 53.94 °F 29.64 in SW 1 mph 3 mph 44% 0 in WeatherCatV3.04B91 W/m2
17:49 77.4 °F 52.49 °F 29.64 in WSW 5 mph 10 mph 42% 0 in WeatherCatV3.04B91 W/m2
17:54 77.4 °F 53.76 °F 29.64 in Calm   2 mph 44% 0 in WeatherCatV3.04B91 W/m2
17:59 77.2 °F 53.58 °F 29.64 in Calm   2 mph 44% 0 in WeatherCatV3.04B91 W/m2
18:04 77.2 °F 52.95 °F 29.64 in Calm   6 mph 43% 0 in WeatherCatV3.04B91 W/m2
18:09 77 °F 54.01 °F 29.64 in Calm   4 mph 45% 0 in WeatherCatV3.04B91 W/m2
18:14 77 °F 55.2 °F 29.64 in Calm   2 mph 47% 0 in WeatherCatV3.04B91 W/m2
18:19 77.2 °F 55.39 °F 29.64 in Calm   2 mph 47% 0 in WeatherCatV3.04B91 W/m2
18:24 77.4 °F 56.15 °F 29.64 in SW 5 mph 9 mph 48% 0 in WeatherCatV3.04B91 W/m2
18:29 77.6 °F 56.33 °F 29.63 in SSW 2 mph 3 mph 48% 0 in WeatherCatV3.04B91 W/m2
18:34 77.4 °F 55.57 °F 29.63 in Calm   3 mph 47% 0 in WeatherCatV3.04B91 W/m2
18:39 77.4 °F 56.72 °F 29.63 in SW 2 mph 2 mph 49% 0 in WeatherCatV3.04B91 W/m2
18:44 77.2 °F 55.97 °F 29.63 in Calm   5 mph 48% 0 in WeatherCatV3.04B91 W/m2
18:49 77.4 °F 56.15 °F 29.63 in SSW 3 mph 6 mph 48% 0 in WeatherCatV3.04B91 W/m2
18:54 77.2 °F 55.97 °F 29.63 in Calm   6 mph 48% 0 in WeatherCatV3.04B91 W/m2
18:59 77.2 °F 56.54 °F 29.63 in Calm   1 mph 49% 0 in WeatherCatV3.04B91 W/m2
19:04 77 °F 55.78 °F 29.63 in SW 4 mph 5 mph 48% 0 in WeatherCatV3.04B91 W/m2
19:09 77 °F 56.35 °F 29.63 in WSW 2 mph 7 mph 49% 0 in WeatherCatV3.04B91 W/m2
19:14 77 °F 56.91 °F 29.62 in Calm     50% 0 in WeatherCatV3.04B91 W/m2
19:19 76.8 °F 57.28 °F 29.62 in Calm     51% 0 in WeatherCatV3.04B91 W/m2
19:24 76.8 °F 57.28 °F 29.62 in Calm   3 mph 51% 0 in WeatherCatV3.04B91 W/m2
19:29 76.7 °F 57.73 °F 29.62 in SSW 1 mph 1 mph 52% 0 in WeatherCatV3.04B91 W/m2
19:34 76.7 °F 58.26 °F 29.62 in Calm   1 mph 53% 0 in WeatherCatV3.04B91 W/m2
19:39 76.5 °F 57.54 °F 29.62 in Calm   6 mph 52% 0 in WeatherCatV3.04B91 W/m2
19:44 76.1 °F 57.71 °F 29.61 in Calm   4 mph 53% 0 in WeatherCatV3.04B91 W/m2
19:49 76 °F 57.61 °F 29.61 in Calm   3 mph 53% 0 in WeatherCatV3.04B91 W/m2
19:54 75.8 °F 56.9 °F 29.61 in Calm     52% 0 in WeatherCatV3.04B91 W/m2
19:59 75.6 °F 57.24 °F 29.61 in Calm   3 mph 53% 0 in WeatherCatV3.04B91 W/m2
20:04 75.4 °F 57.06 °F 29.61 in Calm   1 mph 53% 0 in WeatherCatV3.04B91 W/m2
20:09 75.3 °F 56.97 °F 29.61 in Calm     53% 0 in WeatherCatV3.04B91 W/m2
20:14 75.1 °F 57.3 °F 29.61 in Calm     54% 0 in WeatherCatV3.04B91 W/m2
20:19 74.9 °F 56.6 °F 29.61 in Calm   1 mph 53% 0 in WeatherCatV3.04B91 W/m2
20:24 74.7 °F 56.41 °F 29.61 in Calm     53% 0 in WeatherCatV3.04B91 W/m2
20:29 74.6 °F 56.84 °F 29.61 in Calm     54% 0 in WeatherCatV3.04B91 W/m2
20:34 74.4 °F 56.65 °F 29.61 in Calm     54% 0 in WeatherCatV3.04B91 W/m2
20:39 74 °F 56.79 °F 29.61 in Calm     55% 0 in WeatherCatV3.04B91 W/m2
20:44 73.7 °F 57.01 °F 29.61 in Calm     56% 0 in WeatherCatV3.04B91 W/m2
20:49 73.3 °F 56.64 °F 29.61 in Calm     56% 0 in WeatherCatV3.04B91 W/m2
20:54 73 °F 56.85 °F 29.61 in Calm     57% 0 in WeatherCatV3.04B91 W/m2
20:59 72.5 °F 57.34 °F 29.61 in Calm     59% 0 in WeatherCatV3.04B91 W/m2
21:04 72.1 °F 57.43 °F 29.61 in Calm     60% 0 in WeatherCatV3.04B91 W/m2
21:09 71.8 °F 57.61 °F 29.61 in Calm     61% 0 in WeatherCatV3.04B91 W/m2
21:14 71.5 °F 57.33 °F 29.61 in Calm     61% 0 in WeatherCatV3.04B91 W/m2
21:19 71.3 °F 57.59 °F 29.61 in Calm     62% 0 in WeatherCatV3.04B91 W/m2
21:24 70.9 °F 57.22 °F 29.61 in Calm     62% 0 in WeatherCatV3.04B91 W/m2
21:29 70.8 °F 57.57 °F 29.62 in Calm     63% 0 in WeatherCatV3.04B91 W/m2
21:34 70.8 °F 57.57 °F 29.62 in Calm     63% 0 in WeatherCatV3.04B91 W/m2
21:39 70.4 °F 57.63 °F 29.62 in Calm     64% 0 in WeatherCatV3.04B91 W/m2
21:44 70.3 °F 57.53 °F 29.63 in Calm     64% 0 in WeatherCatV3.04B91 W/m2
21:49 70.1 °F 57.78 °F 29.63 in Calm     65% 0 in WeatherCatV3.04B91 W/m2
21:54 69.8 °F 57.49 °F 29.63 in Calm     65% 0 in WeatherCatV3.04B91 W/m2
21:59 69.4 °F 57.54 °F 29.63 in Calm     66% 0 in WeatherCatV3.04B91 W/m2
22:04 69.1 °F 57.25 °F 29.63 in Calm     66% 0 in WeatherCatV3.04B91 W/m2
22:09 68.9 °F 57.89 °F 29.63 in Calm     68% 0 in WeatherCatV3.04B91 W/m2
22:14 68.6 °F 58.01 °F 29.64 in Calm     69% 0 in WeatherCatV3.04B91 W/m2
22:19 68.3 °F 58.13 °F 29.64 in Calm     70% 0 in WeatherCatV3.04B91 W/m2
22:24 68.1 °F 58.33 °F 29.64 in Calm     71% 0 in WeatherCatV3.04B91 W/m2
22:29 67.8 °F 58.43 °F 29.65 in Calm     72% 0 in WeatherCatV3.04B91 W/m2
22:34 67.6 °F 58.63 °F 29.65 in Calm     73% 0 in WeatherCatV3.04B91 W/m2
22:39 67.4 °F 58.82 °F 29.65 in Calm     74% 0 in WeatherCatV3.04B91 W/m2
22:44 67.3 °F 59.09 °F 29.66 in Calm     75% 0 in WeatherCatV3.04B91 W/m2
22:49 67.1 °F 58.9 °F 29.66 in Calm     75% 0 in WeatherCatV3.04B91 W/m2
22:54 67.1 °F 59.27 °F 29.66 in Calm     76% 0 in WeatherCatV3.04B91 W/m2
22:59 66.9 °F 59.08 °F 29.66 in Calm     76% 0 in WeatherCatV3.04B91 W/m2
23:04 66.8 °F 58.98 °F 29.66 in Calm     76% 0 in WeatherCatV3.04B91 W/m2
23:09 66.6 °F 59.16 °F 29.66 in Calm     77% 0 in WeatherCatV3.04B91 W/m2
23:14 66.4 °F 58.96 °F 29.66 in Calm     77% 0 in WeatherCatV3.04B91 W/m2
23:19 66.1 °F 59.03 °F 29.66 in Calm     78% 0 in WeatherCatV3.04B91 W/m2
23:24 66 °F 59.29 °F 29.66 in Calm     79% 0 in WeatherCatV3.04B91 W/m2
23:29 66 °F 59.29 °F 29.65 in Calm     79% 0 in WeatherCatV3.04B91 W/m2
23:34 65.6 °F 59.26 °F 29.65 in Calm     80% 0 in WeatherCatV3.04B91 W/m2
23:39 65.6 °F 59.6 °F 29.65 in Calm     81% 0 in WeatherCatV3.04B91 W/m2
23:44 65.6 °F 59.95 °F 29.65 in Calm     82% 0 in WeatherCatV3.04B91 W/m2
23:49 65.8 °F 60.14 °F 29.65 in Calm     82% 0 in WeatherCatV3.04B91 W/m2
23:54 65.8 °F 60.49 °F 29.65 in Calm     83% 0 in WeatherCatV3.04B91 W/m2
23:59 65.8 °F 60.82 °F 29.65 in Calm     84% 0 in WeatherCatV3.04B91 W/m2
Bellevue, Nebraska, USA
Compliments of Weather Underground - 3.25 mb